createdAt,value
2018-02-23T00:00:50.108Z,75.76
2018-02-23T00:01:50.678Z,75.28
2018-02-23T00:02:51.245Z,74.90
2018-02-23T00:03:51.809Z,74.71
2018-02-23T00:04:52.375Z,74.34
2018-02-23T00:05:52.944Z,74.19
2018-02-23T00:06:53.509Z,74.66
2018-02-23T00:07:54.079Z,75.04
2018-02-23T00:08:54.645Z,74.57
2018-02-23T00:09:55.209Z,76.17
2018-02-23T00:10:55.776Z,77.02
2018-02-23T00:11:56.391Z,75.70
2018-02-23T00:12:56.926Z,75.60
2018-02-23T00:13:57.494Z,75.04
2018-02-23T00:14:58.061Z,75.60
2018-02-23T00:15:58.646Z,76.45
2018-02-23T00:16:59.207Z,76.36
2018-02-23T00:17:59.774Z,76.45
2018-02-23T00:19:00.358Z,75.42
2018-02-23T00:20:00.936Z,76.83
2018-02-23T00:21:01.525Z,77.21
2018-02-23T00:22:02.084Z,77.21
2018-02-23T00:23:02.652Z,77.21
2018-02-23T00:24:03.219Z,76.64
2018-02-23T00:25:03.786Z,77.31
2018-02-23T00:26:04.367Z,77.40
2018-02-23T00:27:04.932Z,77.02
2018-02-23T00:28:05.498Z,77.78
2018-02-23T00:29:06.064Z,77.78
2018-02-23T00:30:06.630Z,78.44
2018-02-23T00:31:07.198Z,78.63
2018-02-23T00:32:07.762Z,78.44
2018-02-23T00:33:08.328Z,79.38
2018-02-23T00:34:08.894Z,79.57
2018-02-23T00:35:09.473Z,78.91
2018-02-23T00:36:10.040Z,78.53
2018-02-23T00:37:10.606Z,79.10
2018-02-23T00:38:11.172Z,78.91
2018-02-23T00:39:11.740Z,78.91
2018-02-23T00:40:12.306Z,79.10
2018-02-23T00:41:12.875Z,79.00
2018-02-23T00:42:13.437Z,78.91
2018-02-23T00:43:14.005Z,79.86
2018-02-23T00:44:14.573Z,80.05
2018-02-23T00:45:15.139Z,79.48
2018-02-23T00:46:15.704Z,79.38
2018-02-23T00:47:16.271Z,79.29
2018-02-23T00:48:16.838Z,79.10
2018-02-23T00:49:17.408Z,78.72
2018-02-23T00:50:17.989Z,78.91
2018-02-23T00:51:18.556Z,78.91
2018-02-23T00:52:19.122Z,78.91
2018-02-23T00:53:19.691Z,78.81
2018-02-23T00:54:20.259Z,78.34
2018-02-23T00:55:20.825Z,78.44
2018-02-23T00:56:21.390Z,77.87
2018-02-23T00:57:21.956Z,77.59
2018-02-23T00:58:22.526Z,77.78
2018-02-23T00:59:23.091Z,77.31
2018-02-23T01:00:23.674Z,77.69
2018-02-23T01:01:24.242Z,76.55
2018-02-23T01:02:24.809Z,76.93
2018-02-23T01:03:25.379Z,76.45
2018-02-23T01:04:25.945Z,76.64
2018-02-23T01:05:26.564Z,76.55
2018-02-23T01:06:27.075Z,76.55
2018-02-23T01:07:27.643Z,75.89
2018-02-23T01:08:28.210Z,75.79
2018-02-23T01:09:28.779Z,76.55
2018-02-23T01:10:29.349Z,75.60
2018-02-23T01:11:29.914Z,75.51
2018-02-23T01:12:30.475Z,75.04
2018-02-23T01:13:31.055Z,75.32
2018-02-23T01:14:31.624Z,74.66
2018-02-23T01:15:32.190Z,75.42
2018-02-23T01:16:32.759Z,74.57
2018-02-23T01:17:33.324Z,73.90
2018-02-23T01:18:33.890Z,73.90
2018-02-23T01:19:34.456Z,73.90
2018-02-23T01:20:35.025Z,74.00
2018-02-23T01:21:35.593Z,73.24
2018-02-23T01:22:36.160Z,72.30
2018-02-23T01:23:36.728Z,72.39
2018-02-23T01:24:37.294Z,71.64
2018-02-23T01:25:37.862Z,71.83
2018-02-23T01:26:38.426Z,71.45
2018-02-23T01:27:38.993Z,71.83
2018-02-23T01:28:39.558Z,71.54
2018-02-23T01:29:40.125Z,72.30
2018-02-23T01:30:40.691Z,72.02
2018-02-23T01:31:41.257Z,72.86
2018-02-23T01:32:41.823Z,72.39
2018-02-23T01:33:42.389Z,72.49
2018-02-23T01:34:42.956Z,72.30
2018-02-23T01:35:43.584Z,71.92
2018-02-23T01:36:44.091Z,71.54
2018-02-23T01:37:44.657Z,71.35
2018-02-23T01:38:45.222Z,71.83
2018-02-23T01:39:45.786Z,71.35
2018-02-23T01:40:46.350Z,71.26
2018-02-23T01:41:46.916Z,71.35
2018-02-23T01:42:47.483Z,71.16
2018-02-23T01:43:48.047Z,71.16
2018-02-23T01:44:48.612Z,70.69
2018-02-23T01:45:49.182Z,71.07
2018-02-23T01:46:49.744Z,71.26
2018-02-23T01:47:50.311Z,71.54
2018-02-23T01:48:50.878Z,71.45
2018-02-23T01:49:51.443Z,71.54
2018-02-23T01:50:52.009Z,71.35
2018-02-23T01:51:52.579Z,71.83
2018-02-23T01:52:53.137Z,71.83
2018-02-23T01:53:53.705Z,71.45
2018-02-23T01:54:54.271Z,71.45
2018-02-23T01:55:54.835Z,71.16
2018-02-23T01:56:55.402Z,70.78
2018-02-23T01:57:55.966Z,70.97
2018-02-23T01:58:56.531Z,70.12
2018-02-23T01:59:57.100Z,69.56
2018-02-23T02:00:57.676Z,70.03
2018-02-23T02:01:58.241Z,70.21
2018-02-23T02:02:58.804Z,69.93
2018-02-23T02:03:59.370Z,69.37
2018-02-23T02:04:59.948Z,69.37
2018-02-23T02:06:00.511Z,69.37
2018-02-23T02:07:01.076Z,69.09
2018-02-23T02:08:01.641Z,69.18
2018-02-23T02:09:02.206Z,68.61
2018-02-23T02:10:02.772Z,68.52
2018-02-23T02:11:03.335Z,68.71
2018-02-23T02:12:03.900Z,68.52
2018-02-23T02:13:04.463Z,68.33
2018-02-23T02:14:05.028Z,67.95
2018-02-23T02:15:05.592Z,68.04
2018-02-23T02:16:06.174Z,67.95
2018-02-23T02:17:06.734Z,67.66
2018-02-23T02:18:07.299Z,67.47
2018-02-23T02:19:07.863Z,67.10
2018-02-23T02:20:08.425Z,67.10
2018-02-23T02:21:08.992Z,66.25
2018-02-23T02:22:09.560Z,66.63
2018-02-23T02:23:10.124Z,66.16
2018-02-23T02:24:10.690Z,65.87
2018-02-23T02:25:11.255Z,65.11
2018-02-23T02:26:11.835Z,65.02
2018-02-23T02:27:12.400Z,64.36
2018-02-23T02:28:12.965Z,64.73
2018-02-23T02:29:13.532Z,64.83
2018-02-23T02:30:14.099Z,64.45
2018-02-23T02:31:14.679Z,64.36
2018-02-23T02:32:15.245Z,63.89
2018-02-23T02:33:15.812Z,63.60
2018-02-23T02:34:16.394Z,63.60
2018-02-23T02:35:16.961Z,63.70
2018-02-23T02:36:17.523Z,64.17
2018-02-23T02:37:18.090Z,64.45
2018-02-23T02:38:18.654Z,63.89
2018-02-23T02:39:19.219Z,64.07
2018-02-23T02:40:19.798Z,63.60
2018-02-23T02:41:20.364Z,63.79
2018-02-23T02:42:20.933Z,64.17
2018-02-23T02:43:21.495Z,64.17
2018-02-23T02:44:22.063Z,63.79
2018-02-23T02:45:22.628Z,63.60
2018-02-23T02:46:23.192Z,63.04
2018-02-23T02:47:23.771Z,62.85
2018-02-23T02:48:24.338Z,62.94
2018-02-23T02:49:24.900Z,62.56
2018-02-23T02:50:25.469Z,62.85
2018-02-23T02:51:26.043Z,62.37
2018-02-23T02:52:26.608Z,61.99
2018-02-23T02:53:28.588Z,62.18
2018-02-23T02:54:29.153Z,61.52
2018-02-23T02:55:29.720Z,61.71
2018-02-23T02:56:30.285Z,61.52
2018-02-23T02:57:30.848Z,60.67
2018-02-23T02:58:31.414Z,60.77
2018-02-23T02:59:31.980Z,60.39
2018-02-23T03:00:32.561Z,60.58
2018-02-23T03:01:33.127Z,60.39
2018-02-23T03:02:33.706Z,59.92
2018-02-23T03:03:34.270Z,60.01
2018-02-23T03:04:34.836Z,59.63
2018-02-23T03:05:35.401Z,59.54
2018-02-23T03:06:35.969Z,59.35
2018-02-23T03:07:36.535Z,59.92
2018-02-23T03:08:37.113Z,59.73
2018-02-23T03:09:37.696Z,59.25
2018-02-23T03:10:38.260Z,59.16
2018-02-23T03:11:38.839Z,58.40
2018-02-23T03:12:39.404Z,58.12
2018-02-23T03:13:39.970Z,57.65
2018-02-23T03:14:40.551Z,56.99
2018-02-23T03:15:41.129Z,56.32
2018-02-23T03:16:41.693Z,56.32
2018-02-23T03:17:42.258Z,56.32
2018-02-23T03:18:42.837Z,56.32
2018-02-23T03:19:43.402Z,55.57
2018-02-23T03:20:43.968Z,55.29
2018-02-23T03:21:44.533Z,54.91
2018-02-23T03:22:45.099Z,54.62
2018-02-23T03:23:45.666Z,53.87
2018-02-23T03:24:46.245Z,53.77
2018-02-23T03:25:46.809Z,53.68
2018-02-23T03:26:47.389Z,53.58
2018-02-23T03:27:47.953Z,53.20
2018-02-23T03:28:48.523Z,53.30
2018-02-23T03:29:49.089Z,52.73
2018-02-23T03:30:49.668Z,52.55
2018-02-23T03:31:50.235Z,52.55
2018-02-23T03:32:50.802Z,52.26
2018-02-23T03:33:51.373Z,51.79
2018-02-23T03:34:51.935Z,51.88
2018-02-23T03:35:52.504Z,51.32
2018-02-23T03:36:53.067Z,50.94
2018-02-23T03:37:53.633Z,50.56
2018-02-23T03:38:54.200Z,49.80
2018-02-23T03:39:54.766Z,49.90
2018-02-23T03:40:55.335Z,49.99
2018-02-23T03:41:55.922Z,49.80
2018-02-23T03:42:56.497Z,49.05
2018-02-23T03:43:57.064Z,49.43
2018-02-23T03:44:57.632Z,48.67
2018-02-23T03:45:58.197Z,48.67
2018-02-23T03:46:58.768Z,48.76
2018-02-23T03:47:59.332Z,48.48
2018-02-23T03:48:59.899Z,48.10
2018-02-23T03:50:03.509Z,47.63
2018-02-23T03:51:04.073Z,47.53
2018-02-23T03:52:04.637Z,47.53
2018-02-23T03:53:05.204Z,47.25
2018-02-23T03:54:05.770Z,47.44
2018-02-23T03:55:06.337Z,46.78
2018-02-23T03:56:06.905Z,46.69
2018-02-23T03:57:07.471Z,46.78
2018-02-23T03:58:08.037Z,46.69
2018-02-23T03:59:08.602Z,46.69
2018-02-23T04:00:09.168Z,46.50
2018-02-23T04:01:09.737Z,46.59
2018-02-23T04:02:10.315Z,45.93
2018-02-23T04:03:10.881Z,45.55
2018-02-23T04:04:11.447Z,45.08
2018-02-23T04:05:12.042Z,44.98
2018-02-23T04:06:12.578Z,44.04
2018-02-23T04:07:13.146Z,43.95
2018-02-23T04:08:13.713Z,43.85
2018-02-23T04:09:14.280Z,43.38
2018-02-23T04:10:14.847Z,42.81
2018-02-23T04:11:15.440Z,42.81
2018-02-23T04:12:15.982Z,42.81
2018-02-23T04:13:16.566Z,42.24
2018-02-23T04:14:17.115Z,42.90
2018-02-23T04:15:17.683Z,42.90
2018-02-23T04:16:18.247Z,42.24
2018-02-23T04:17:18.816Z,41.30
2018-02-23T04:18:19.384Z,41.11
2018-02-23T04:19:19.945Z,41.67
2018-02-23T04:20:20.525Z,41.67
2018-02-23T04:21:21.100Z,41.49
2018-02-23T04:22:21.657Z,41.77
2018-02-23T04:23:22.267Z,41.58
2018-02-23T04:24:22.791Z,41.49
2018-02-23T04:25:23.357Z,41.49
2018-02-23T04:26:23.923Z,41.30
2018-02-23T04:27:24.489Z,40.92
2018-02-23T04:28:25.058Z,41.20
2018-02-23T04:29:25.623Z,40.45
2018-02-23T04:30:26.189Z,40.07
2018-02-23T04:31:26.755Z,40.64
2018-02-23T04:32:27.321Z,40.64
2018-02-23T04:33:27.889Z,39.59
2018-02-23T04:34:28.454Z,41.02
2018-02-23T04:35:29.020Z,40.26
2018-02-23T04:36:29.586Z,40.16
2018-02-23T04:37:30.151Z,40.64
2018-02-23T04:38:30.719Z,40.16
2018-02-23T04:39:31.284Z,40.35
2018-02-23T04:40:31.863Z,40.26
2018-02-23T04:41:32.431Z,40.64
2018-02-23T04:42:32.997Z,39.88
2018-02-23T04:43:33.562Z,40.16
2018-02-23T04:44:34.129Z,40.24
2018-02-23T04:45:34.694Z,39.11
2018-02-23T04:46:35.261Z,38.92
2018-02-23T04:47:35.828Z,38.73
2018-02-23T04:48:36.395Z,38.75
2018-02-23T04:49:36.961Z,38.93
2018-02-23T04:50:37.529Z,38.82
2018-02-23T04:51:38.094Z,38.35
2018-02-23T04:52:38.661Z,38.35
2018-02-23T04:53:39.227Z,38.26
2018-02-23T04:54:39.794Z,38.44
2018-02-23T04:55:40.361Z,38.92
2018-02-23T04:56:40.928Z,39.11
2018-02-23T04:57:41.493Z,39.01
2018-02-23T04:58:42.063Z,38.73
2018-02-23T04:59:42.628Z,39.20
2018-02-23T05:00:43.194Z,39.67
2018-02-23T05:01:43.759Z,39.86
2018-02-23T05:02:44.340Z,39.58
2018-02-23T05:03:44.905Z,39.58
2018-02-23T05:04:45.470Z,39.48
2018-02-23T05:05:46.041Z,39.01
2018-02-23T05:06:46.603Z,39.58
2018-02-23T05:07:47.170Z,39.76
2018-02-23T05:08:47.750Z,40.52
2018-02-23T05:09:48.316Z,39.86
2018-02-23T05:10:49.006Z,40.33
2018-02-23T05:11:49.451Z,40.42
2018-02-23T05:12:50.018Z,40.24
2018-02-23T05:13:50.597Z,40.80
2018-02-23T05:14:51.166Z,40.52
2018-02-23T05:15:51.732Z,41.28
2018-02-23T05:16:52.296Z,41.85
2018-02-23T05:17:52.871Z,41.47
2018-02-23T05:18:53.445Z,42.03
2018-02-23T05:19:54.012Z,42.32
2018-02-23T05:20:54.581Z,42.32
2018-02-23T05:21:55.145Z,42.97
2018-02-23T05:22:55.713Z,43.07
2018-02-23T05:23:56.279Z,43.16
2018-02-23T05:24:56.845Z,43.92
2018-02-23T05:25:57.414Z,43.83
2018-02-23T05:26:57.977Z,43.26
2018-02-23T05:27:58.548Z,43.07
2018-02-23T05:28:59.124Z,43.07
2018-02-23T05:29:59.690Z,42.50
2018-02-23T05:31:00.257Z,42.69
2018-02-23T05:32:00.825Z,42.79
2018-02-23T05:33:01.390Z,41.66
2018-02-23T05:34:01.957Z,42.69
2018-02-23T05:35:02.525Z,42.22
2018-02-23T05:36:03.091Z,43.07
2018-02-23T05:37:03.662Z,43.16
2018-02-23T05:38:04.237Z,42.97
2018-02-23T05:39:04.804Z,43.83
2018-02-23T05:40:05.370Z,43.64
2018-02-23T05:41:05.937Z,43.73
2018-02-23T05:42:06.504Z,44.11
2018-02-23T05:43:07.069Z,43.73
2018-02-23T05:44:07.636Z,44.11
2018-02-23T05:45:08.203Z,45.25
2018-02-23T05:46:08.770Z,45.34
2018-02-23T05:47:09.336Z,45.34
2018-02-23T05:48:09.902Z,44.87
2018-02-23T05:49:10.470Z,46.28
2018-02-23T05:50:11.038Z,45.06
2018-02-23T05:51:11.619Z,46.75
2018-02-23T05:52:12.192Z,46.47
2018-02-23T05:53:12.767Z,46.56
2018-02-23T05:54:13.333Z,47.13
2018-02-23T05:55:13.899Z,47.80
2018-02-23T05:56:14.467Z,47.42
2018-02-23T05:57:15.047Z,48.36
2018-02-23T05:58:15.614Z,48.27
2018-02-23T05:59:16.195Z,48.46
2018-02-23T06:00:16.762Z,49.87
2018-02-23T06:01:17.328Z,49.78
2018-02-23T06:02:17.894Z,49.78
2018-02-23T06:03:18.462Z,49.78
2018-02-23T06:04:19.029Z,50.82
2018-02-23T06:05:19.595Z,51.10
2018-02-23T06:06:20.160Z,51.76
2018-02-23T06:07:20.727Z,51.10
2018-02-23T06:08:21.296Z,50.91
2018-02-23T06:09:21.860Z,51.20
2018-02-23T06:10:22.425Z,51.76
2018-02-23T06:11:22.990Z,51.86
2018-02-23T06:12:23.557Z,51.67
2018-02-23T06:13:24.125Z,52.70
2018-02-23T06:14:24.690Z,53.37
2018-02-23T06:15:25.255Z,53.75
2018-02-23T06:16:25.821Z,54.41
2018-02-23T06:17:26.388Z,55.07
2018-02-23T06:18:26.956Z,55.07
2018-02-23T06:19:27.555Z,56.01
2018-02-23T06:20:28.087Z,56.39
2018-02-23T06:21:28.655Z,56.96
2018-02-23T06:22:29.222Z,57.15
2018-02-23T06:23:29.789Z,57.71
2018-02-23T06:24:30.369Z,59.03
2018-02-23T06:25:30.937Z,60.08
2018-02-23T06:26:31.501Z,60.08
2018-02-23T06:27:32.070Z,59.98
2018-02-23T06:28:32.638Z,61.02
2018-02-23T06:29:33.204Z,61.77
2018-02-23T06:30:33.771Z,61.68
2018-02-23T06:31:34.352Z,63.00
2018-02-23T06:32:34.920Z,62.34
2018-02-23T06:33:35.488Z,63.67
2018-02-23T06:34:36.068Z,64.14
2018-02-23T06:35:36.636Z,65.17
2018-02-23T06:36:37.200Z,65.65
2018-02-23T06:37:37.769Z,66.50
2018-02-23T06:38:38.341Z,67.44
2018-02-23T06:39:38.903Z,68.01
2018-02-23T06:40:39.469Z,68.76
2018-02-23T06:41:40.037Z,69.24
2018-02-23T06:42:40.607Z,69.62
2018-02-23T06:43:41.173Z,69.62
2018-02-23T06:44:41.766Z,68.10
2018-02-23T06:45:42.321Z,70.37
2018-02-23T06:46:42.891Z,70.84
2018-02-23T06:47:43.457Z,70.94
2018-02-23T06:48:44.023Z,70.00
2018-02-23T06:49:44.591Z,71.41
2018-02-23T06:50:45.158Z,72.17
2018-02-23T06:51:45.726Z,71.88
2018-02-23T06:52:46.292Z,73.02
2018-02-23T06:53:46.861Z,73.21
2018-02-23T06:54:47.444Z,73.68
2018-02-23T06:55:48.011Z,73.96
2018-02-23T06:56:48.579Z,73.21
2018-02-23T06:57:49.146Z,73.58
2018-02-23T06:58:49.717Z,73.96
2018-02-23T06:59:50.300Z,74.62
2018-02-23T07:00:50.867Z,75.09
2018-02-23T07:01:51.436Z,74.43
2018-02-23T07:02:52.006Z,74.43
2018-02-23T07:03:52.574Z,74.34
2018-02-23T07:04:53.141Z,74.62
2018-02-23T07:05:53.712Z,75.19
2018-02-23T07:06:54.279Z,75.95
2018-02-23T07:07:54.848Z,76.32
2018-02-23T07:08:55.418Z,76.32
2018-02-23T07:09:55.986Z,76.70
2018-02-23T07:10:56.553Z,76.70
2018-02-23T07:11:57.122Z,76.89
2018-02-23T07:12:57.689Z,77.17
2018-02-23T07:13:58.273Z,77.74
2018-02-23T07:14:58.844Z,77.64
2018-02-23T07:15:59.409Z,77.74
2018-02-23T07:16:59.977Z,77.64
2018-02-23T07:18:00.559Z,78.02
2018-02-23T07:19:01.127Z,78.31
2018-02-23T07:20:01.709Z,79.91
2018-02-23T07:21:02.281Z,79.06
2018-02-23T07:22:02.846Z,79.06
2018-02-23T07:23:03.415Z,79.91
2018-02-23T07:24:03.983Z,80.00
2018-02-23T07:25:04.552Z,80.19
2018-02-23T07:26:05.120Z,81.04
2018-02-23T07:27:05.691Z,80.57
2018-02-23T07:28:06.256Z,80.19
2018-02-23T07:29:06.824Z,80.57
2018-02-23T07:30:07.393Z,80.57
2018-02-23T07:31:07.975Z,81.61
2018-02-23T07:32:08.543Z,80.71
2018-02-23T07:33:09.114Z,82.60
2018-02-23T07:34:09.683Z,82.37
2018-02-23T07:35:10.252Z,86.47
2018-02-23T07:36:10.822Z,85.24
2018-02-23T07:37:11.391Z,85.91
2018-02-23T07:38:11.960Z,88.17
2018-02-23T07:39:12.529Z,89.03
2018-02-23T07:40:13.097Z,88.27
2018-02-23T07:41:13.666Z,85.34
2018-02-23T07:42:14.236Z,85.05
2018-02-23T07:43:14.816Z,81.84
2018-02-23T07:44:15.385Z,86.66
2018-02-23T07:45:15.954Z,90.25
2018-02-23T07:46:16.523Z,87.51
2018-02-23T07:47:17.093Z,91.77
2018-02-23T07:48:17.660Z,92.14
2018-02-23T07:49:18.230Z,94.03
2018-02-23T07:50:18.800Z,94.22
2018-02-23T07:51:19.368Z,93.56
2018-02-23T07:52:19.937Z,95.17
2018-02-23T07:53:20.506Z,92.52
2018-02-23T07:54:21.075Z,96.59
2018-02-23T07:55:21.658Z,93.94
2018-02-23T07:56:22.230Z,96.87
2018-02-23T07:57:22.814Z,97.34
2018-02-23T07:58:23.392Z,97.25
2018-02-23T07:59:23.961Z,99.42
2018-02-23T08:00:24.532Z,98.66
2018-02-23T08:01:25.101Z,98.95
2018-02-23T08:02:25.668Z,99.14
2018-02-23T08:03:26.239Z,98.10
2018-02-23T08:04:26.813Z,98.47
2018-02-23T08:05:27.380Z,99.99
2018-02-23T08:06:27.949Z,99.61
2018-02-23T08:07:28.518Z,99.99
2018-02-23T08:08:29.088Z,99.99
2018-02-23T08:09:29.657Z,99.99
2018-02-23T08:10:30.227Z,99.99
2018-02-23T08:11:30.807Z,99.99
2018-02-23T08:12:31.376Z,99.99
2018-02-23T08:13:31.945Z,99.99
2018-02-23T08:14:32.527Z,99.99
2018-02-23T08:15:33.123Z,99.99
2018-02-23T08:16:33.669Z,99.99
2018-02-23T08:17:34.235Z,99.99
2018-02-23T08:18:34.802Z,99.99
2018-02-23T08:19:35.371Z,99.99
2018-02-23T08:20:35.940Z,99.99
2018-02-23T08:21:36.512Z,99.99
2018-02-23T08:22:37.077Z,99.99
2018-02-23T08:23:37.644Z,99.99
2018-02-23T08:24:38.216Z,99.99
2018-02-23T08:25:38.782Z,99.99
2018-02-23T08:26:39.351Z,99.99
2018-02-23T08:27:39.922Z,99.99
2018-02-23T08:28:40.490Z,99.99
2018-02-23T08:29:41.058Z,99.99
2018-02-23T08:30:41.628Z,99.99
2018-02-23T08:31:42.195Z,99.99
2018-02-23T08:32:42.767Z,99.99
2018-02-23T08:33:43.333Z,99.99
2018-02-23T08:34:43.900Z,99.99
2018-02-23T08:35:44.468Z,99.99
2018-02-23T08:36:45.039Z,99.99
2018-02-23T08:37:45.607Z,99.99
2018-02-23T08:38:46.177Z,99.99
2018-02-23T08:39:46.746Z,99.99
2018-02-23T08:40:47.314Z,99.99
2018-02-23T08:41:47.882Z,99.99
2018-02-23T08:42:48.450Z,99.99
2018-02-23T08:43:49.020Z,99.99
2018-02-23T08:44:49.603Z,99.99
2018-02-23T08:45:50.173Z,99.99
2018-02-23T08:46:50.741Z,99.99
2018-02-23T08:47:51.316Z,99.99
2018-02-23T08:48:51.880Z,99.99
2018-02-23T08:49:52.448Z,99.99
2018-02-23T08:50:53.017Z,99.99
2018-02-23T08:51:53.586Z,99.99
2018-02-23T08:52:54.156Z,99.99
2018-02-23T08:53:54.726Z,99.99
2018-02-23T08:54:55.295Z,99.99
2018-02-23T08:55:55.879Z,99.99
2018-02-23T08:56:56.447Z,99.99
2018-02-23T08:57:57.031Z,99.99
2018-02-23T08:58:57.616Z,99.99
2018-02-23T08:59:58.185Z,99.99
2018-02-23T09:00:58.753Z,99.99
2018-02-23T09:01:59.322Z,99.99
2018-02-23T09:02:59.896Z,99.99
2018-02-23T09:04:00.462Z,99.99
2018-02-23T09:05:01.031Z,99.99
2018-02-23T09:06:01.605Z,99.99
2018-02-23T09:07:02.195Z,99.99
2018-02-23T09:08:02.739Z,99.99
2018-02-23T09:09:03.322Z,99.99
2018-02-23T09:10:03.895Z,99.99
2018-02-23T09:11:04.480Z,99.99
2018-02-23T09:12:05.047Z,99.99
2018-02-23T09:13:05.616Z,99.99
2018-02-23T09:14:06.186Z,99.99
2018-02-23T09:15:06.756Z,99.99
2018-02-23T09:16:07.324Z,99.99
2018-02-23T09:17:07.898Z,99.99
2018-02-23T09:18:08.466Z,99.99
2018-02-23T09:19:09.033Z,99.99
2018-02-23T09:20:09.601Z,99.99
2018-02-23T09:21:10.172Z,99.99
2018-02-23T09:22:10.742Z,99.99
2018-02-23T09:23:11.311Z,99.99
2018-02-23T09:24:11.882Z,99.99
2018-02-23T09:25:12.450Z,99.99
2018-02-23T09:26:13.023Z,99.99
2018-02-23T09:27:13.589Z,99.99
2018-02-23T09:28:14.159Z,99.99
2018-02-23T09:29:14.729Z,99.99
2018-02-23T09:30:15.300Z,99.99
2018-02-23T09:31:15.869Z,99.99
2018-02-23T09:32:16.439Z,99.99
2018-02-23T09:33:17.011Z,99.99
2018-02-23T09:34:17.577Z,99.99
2018-02-23T09:35:18.146Z,99.99
2018-02-23T09:36:18.715Z,99.99
2018-02-23T09:37:19.283Z,99.99
2018-02-23T09:38:19.851Z,99.99
2018-02-23T09:39:20.421Z,99.99
2018-02-23T09:40:20.989Z,99.99
2018-02-23T09:41:21.556Z,99.99
2018-02-23T09:42:22.125Z,99.99
2018-02-23T09:43:22.694Z,99.99
2018-02-23T09:44:23.263Z,99.99
2018-02-23T09:45:23.831Z,99.99
2018-02-23T09:46:24.402Z,99.99
2018-02-23T09:47:24.985Z,99.99
2018-02-23T09:48:25.567Z,99.99
2018-02-23T09:49:26.137Z,99.99
2018-02-23T09:50:26.719Z,99.99
2018-02-23T09:51:27.287Z,99.99
2018-02-23T09:52:27.857Z,99.99
2018-02-23T09:53:28.429Z,99.99
2018-02-23T09:54:29.014Z,99.99
2018-02-23T09:55:29.788Z,99.99
2018-02-23T09:56:30.368Z,99.99
2018-02-23T09:57:30.940Z,99.99
2018-02-23T09:58:31.511Z,99.99
2018-02-23T09:59:32.093Z,99.99
2018-02-23T10:00:32.662Z,99.99
2018-02-23T10:01:33.233Z,99.99
2018-02-23T10:02:33.801Z,99.99
2018-02-23T10:03:34.372Z,99.99
2018-02-23T10:04:34.943Z,99.99
2018-02-23T10:05:35.547Z,99.99
2018-02-23T10:06:36.081Z,99.99
2018-02-23T10:07:36.665Z,99.99
2018-02-23T10:08:37.237Z,99.99
2018-02-23T10:09:37.807Z,99.99
2018-02-23T10:10:38.377Z,99.99
2018-02-23T10:11:38.948Z,99.99
2018-02-23T10:12:39.518Z,99.99
2018-02-23T10:13:40.090Z,99.99
2018-02-23T10:14:40.658Z,99.99
2018-02-23T10:15:41.228Z,99.99
2018-02-23T10:16:41.797Z,99.99
2018-02-23T10:17:42.372Z,99.99
2018-02-23T10:18:42.953Z,99.99
2018-02-23T10:19:43.523Z,99.99
2018-02-23T10:20:44.093Z,99.99
2018-02-23T10:21:44.664Z,99.99
2018-02-23T10:22:45.234Z,99.99
2018-02-23T10:23:45.804Z,99.99
2018-02-23T10:24:46.375Z,99.99
2018-02-23T10:25:46.945Z,99.99
2018-02-23T10:26:47.515Z,99.99
2018-02-23T10:27:48.085Z,99.99
2018-02-23T10:28:48.655Z,99.99
2018-02-23T10:29:49.225Z,99.99
2018-02-23T10:30:49.794Z,99.99
2018-02-23T10:31:50.364Z,99.99
2018-02-23T10:32:50.965Z,99.99
2018-02-23T10:33:51.506Z,99.29
2018-02-23T10:34:52.087Z,99.19
2018-02-23T10:35:52.657Z,95.97
2018-02-23T10:36:53.228Z,95.59
2018-02-23T10:37:53.812Z,97.02
2018-02-23T10:38:54.382Z,96.26
2018-02-23T10:39:54.955Z,97.49
2018-02-23T10:40:55.522Z,97.30
2018-02-23T10:41:56.090Z,95.78
2018-02-23T10:42:56.660Z,95.78
2018-02-23T10:43:57.231Z,96.73
2018-02-23T10:44:57.801Z,98.25
2018-02-23T10:45:58.371Z,99.52
2018-02-23T10:46:58.943Z,98.01
2018-02-23T10:47:59.513Z,97.92
2018-02-23T10:49:00.081Z,94.79
2018-02-23T10:50:00.652Z,89.96
2018-02-23T10:51:01.225Z,89.54
2018-02-23T10:52:01.806Z,88.68
2018-02-23T10:53:02.376Z,94.04
2018-02-23T10:54:02.945Z,92.00
2018-02-23T10:55:03.514Z,99.15
2018-02-23T10:56:04.086Z,98.06
2018-02-23T10:57:04.656Z,98.35
2018-02-23T10:58:05.226Z,97.68
2018-02-23T10:59:05.798Z,93.56
2018-02-23T11:00:06.387Z,94.23
2018-02-23T11:01:06.953Z,92.33
2018-02-23T11:02:07.524Z,94.51
2018-02-23T11:03:08.095Z,94.23
2018-02-23T11:04:08.664Z,93.65
2018-02-23T11:05:09.236Z,93.27
2018-02-23T11:06:09.808Z,91.48
2018-02-23T11:07:10.376Z,91.95
2018-02-23T11:08:10.945Z,90.91
2018-02-23T11:09:11.518Z,91.48
2018-02-23T11:10:12.088Z,91.29
2018-02-23T11:11:12.658Z,87.98
2018-02-23T11:12:13.231Z,87.17
2018-02-23T11:13:13.816Z,87.65
2018-02-23T11:14:14.386Z,89.44
2018-02-23T11:15:14.955Z,90.72
2018-02-23T11:16:15.528Z,92.80
2018-02-23T11:17:16.097Z,92.14
2018-02-23T11:18:16.667Z,87.55
2018-02-23T11:19:17.239Z,89.11
2018-02-23T11:20:17.812Z,89.77
2018-02-23T11:21:18.380Z,86.93
2018-02-23T11:22:18.952Z,88.07
2018-02-23T11:23:19.521Z,89.01
2018-02-23T11:24:20.091Z,86.36
2018-02-23T11:25:20.661Z,86.55
2018-02-23T11:26:21.232Z,83.33
2018-02-23T11:27:21.803Z,86.74
2018-02-23T11:28:22.372Z,83.43
2018-02-23T11:29:22.941Z,84.28
2018-02-23T11:30:23.530Z,83.81
2018-02-23T11:31:24.094Z,85.80
2018-02-23T11:32:24.662Z,82.29
2018-02-23T11:33:25.230Z,85.80
2018-02-23T11:34:25.805Z,81.63
2018-02-23T11:35:26.369Z,83.81
2018-02-23T11:36:26.938Z,82.06
2018-02-23T11:37:27.507Z,82.57
2018-02-23T11:38:28.075Z,82.29
2018-02-23T11:39:28.649Z,81.25
2018-02-23T11:40:29.229Z,84.75
2018-02-23T11:41:29.797Z,83.62
2018-02-23T11:42:30.366Z,85.70
2018-02-23T11:43:30.934Z,83.05
2018-02-23T11:44:31.505Z,80.87
2018-02-23T11:45:32.078Z,80.68
2018-02-23T11:46:32.646Z,83.71
2018-02-23T11:47:33.217Z,83.62
2018-02-23T11:48:33.790Z,83.52
2018-02-23T11:49:34.360Z,83.81
2018-02-23T11:50:34.930Z,83.56
2018-02-23T11:51:35.500Z,82.76
2018-02-23T11:52:36.071Z,83.43
2018-02-23T11:53:36.640Z,84.51
2018-02-23T11:54:37.213Z,79.93
2018-02-23T11:55:37.799Z,79.64
2018-02-23T11:56:38.367Z,79.45
2018-02-23T11:57:38.938Z,80.30
2018-02-23T11:58:39.510Z,78.31
2018-02-23T11:59:40.080Z,78.83
2018-02-23T12:00:40.651Z,77.27
2018-02-23T12:01:41.223Z,76.80
2018-02-23T12:02:41.793Z,78.22
2018-02-23T12:03:42.366Z,78.41
2018-02-23T12:04:42.936Z,76.89
2018-02-23T12:05:43.509Z,78.22
2018-02-23T12:06:44.092Z,78.50
2018-02-23T12:07:44.676Z,76.51
2018-02-23T12:08:45.246Z,79.55
2018-02-23T12:09:45.819Z,79.17
2018-02-23T12:10:46.390Z,77.27
2018-02-23T12:11:46.960Z,78.31
2018-02-23T12:12:47.532Z,78.79
2018-02-23T12:13:48.103Z,78.22
2018-02-23T12:14:48.674Z,78.31
2018-02-23T12:15:49.251Z,78.41
2018-02-23T12:16:49.816Z,79.36
2018-02-23T12:17:50.389Z,79.30
2018-02-23T12:18:50.960Z,78.31
2018-02-23T12:19:51.530Z,78.03
2018-02-23T12:20:52.102Z,80.77
2018-02-23T12:21:52.675Z,80.82
2018-02-23T12:22:53.244Z,79.58
2018-02-23T12:23:53.817Z,79.96
2018-02-23T12:24:54.388Z,80.49
2018-02-23T12:25:54.958Z,81.76
2018-02-23T12:26:55.530Z,80.77
2018-02-23T12:27:56.103Z,83.47
2018-02-23T12:28:56.673Z,82.95
2018-02-23T12:29:57.245Z,82.48
2018-02-23T12:30:57.816Z,83.81
2018-02-23T12:31:58.386Z,84.66
2018-02-23T12:32:58.958Z,83.24
2018-02-23T12:33:59.530Z,82.72
2018-02-23T12:35:00.107Z,84.66
2018-02-23T12:36:00.684Z,83.71
2018-02-23T12:37:01.269Z,83.71
2018-02-23T12:38:01.840Z,85.80
2018-02-23T12:39:02.413Z,85.89
2018-02-23T12:40:02.983Z,86.65
2018-02-23T12:41:03.559Z,84.28
2018-02-23T12:42:04.126Z,83.81
2018-02-23T12:43:04.696Z,83.05
2018-02-23T12:44:05.262Z,82.76
2018-02-23T12:45:05.834Z,83.05
2018-02-23T12:46:06.406Z,82.76
2018-02-23T12:47:06.987Z,81.06
2018-02-23T12:48:07.556Z,82.86
2018-02-23T12:49:08.138Z,82.86
2018-02-23T12:50:08.708Z,81.82
2018-02-23T12:51:09.279Z,84.19
2018-02-23T12:52:09.851Z,84.13
2018-02-23T12:53:10.421Z,84.04
2018-02-23T12:54:11.004Z,82.62
2018-02-23T12:55:11.571Z,80.77
2018-02-23T12:56:12.143Z,81.34
2018-02-23T12:57:12.714Z,81.48
2018-02-23T12:58:13.299Z,80.82
2018-02-23T12:59:13.882Z,79.17
2018-02-23T13:00:14.466Z,79.55